Time;durP1;ratioP1;P1;durP2;ratioP2;P2;SDS_P1;SDS_P2;PMS_P1;PMS_P2;Temp;Humidity;BMP_temperature;BMP_pressure;BME280_temperature;BME280_humidity;BME280_pressure;Samples;Min_cycle;Max_cycle;Signal;HPM_P1;HPM_P2
2022/07/11 00:00:29;;;;;;;0.87;0.87;;;12.60;99.90;12.00;100260;;;;576191;246;24063;-80
2022/07/11 00:02:57;;;;;;;2.93;1.10;;;12.60;99.90;12.00;100257;;;;576011;246;24086;-79
2022/07/11 00:05:24;;;;;;;2.17;1.17;;;12.60;99.90;12.00;100262;;;;576210;246;24069;-79
2022/07/11 00:07:52;;;;;;;1.43;0.87;;;12.60;99.90;12.00;100258;;;;576082;246;24067;-79
2022/07/11 00:10:20;;;;;;;1.80;1.30;;;12.60;99.90;12.00;100251;;;;576283;246;24057;-79
2022/07/11 00:12:48;;;;;;;1.57;1.10;;;12.60;99.90;12.00;100252;;;;576148;246;24083;-79
2022/07/11 00:15:16;;;;;;;0.80;0.80;;;12.70;99.90;12.10;100247;;;;576072;246;24085;-79
2022/07/11 00:17:44;;;;;;;4.43;1.10;;;12.60;99.90;12.10;100249;;;;576176;246;24077;-78
2022/07/11 00:20:12;;;;;;;1.40;1.10;;;12.70;99.90;12.10;100245;;;;577050;245;24097;-79
2022/07/11 00:22:40;;;;;;;1.20;1.20;;;12.70;99.90;12.10;100249;;;;577418;245;24057;-79
2022/07/11 00:25:08;;;;;;;1.27;1.17;;;12.70;99.90;12.10;100250;;;;576947;246;24053;-78
2022/07/11 00:27:36;;;;;;;1.53;1.00;;;12.70;99.90;12.10;100250;;;;586204;244;24075;-78
2022/07/11 00:30:04;;;;;;;1.07;1.00;;;12.70;99.90;12.10;100256;;;;576768;246;24043;-79
2022/07/11 00:32:32;;;;;;;0.80;0.80;;;12.70;99.90;12.00;100259;;;;585452;244;24121;-79
2022/07/11 00:35:01;;;;;;;2.67;1.17;;;12.70;99.90;12.00;100250;;;;576655;246;24056;-80
2022/07/11 00:37:27;;;;;;;1.40;1.03;;;12.60;99.90;11.90;100257;;;;576543;246;24098;-80
2022/07/11 00:39:59;;;;;;;2.50;1.03;;;12.60;99.90;11.90;100243;;;;576602;246;24052;-80
2022/07/11 00:42:23;;;;;;;1.00;0.97;;;12.50;99.90;11.80;100243;;;;576262;246;24050;-79
2022/07/11 00:44:51;;;;;;;1.07;0.93;;;12.40;99.90;11.70;100245;;;;576342;246;24068;-80
2022/07/11 00:47:19;;;;;;;1.73;0.60;;;12.30;99.90;11.60;100243;;;;576483;246;24077;-80
2022/07/11 00:49:47;;;;;;;1.37;0.87;;;12.20;99.90;11.50;100241;;;;576327;246;24079;-79
2022/07/11 00:52:15;;;;;;;4.60;1.23;;;12.10;99.90;11.40;100230;;;;576504;246;24078;-79
2022/07/11 00:54:46;;;;;;;1.10;1.00;;;12.10;99.90;11.30;100236;;;;585203;241;24064;-80
2022/07/11 00:57:14;;;;;;;1.07;1.00;;;12.00;99.90;11.30;100231;;;;576308;246;24073;-79
2022/07/11 00:59:42;;;;;;;0.77;0.77;;;11.90;99.90;11.20;100228;;;;575799;246;24079;-80
2022/07/11 01:02:07;;;;;;;0.67;0.67;;;11.90;99.90;11.20;100233;;;;575871;246;24112;-80
2022/07/11 01:04:34;;;;;;;0.73;0.73;;;11.80;99.90;11.10;100229;;;;576277;246;24057;-80
2022/07/11 01:07:07;;;;;;;1.00;0.80;;;11.70;99.90;11.10;100222;;;;576168;246;24077;-80
2022/07/11 01:09:31;;;;;;;1.10;0.83;;;11.70;99.90;11.10;100223;;;;575684;246;24076;-80
2022/07/11 01:11:59;;;;;;;0.93;0.93;;;11.70;99.90;11.10;100224;;;;576141;246;24066;-80
2022/07/11 01:14:27;;;;;;;1.10;1.10;;;11.70;99.90;11.20;100227;;;;576106;246;24089;-80
2022/07/11 01:16:55;;;;;;;2.23;0.93;;;11.80;99.90;11.20;100221;;;;576256;246;24062;-79
2022/07/11 01:19:26;;;;;;;1.00;0.93;;;11.80;99.90;11.20;100219;;;;576131;246;24062;-80
2022/07/11 01:21:51;;;;;;;1.27;0.90;;;11.80;99.90;11.10;100223;;;;575903;246;24074;-80
2022/07/11 01:24:19;;;;;;;1.60;0.67;;;11.70;99.90;11.10;100219;;;;576113;246;24068;-78
2022/07/11 01:26:52;;;;;;;0.77;0.77;;;11.70;99.90;11.00;100225;;;;576479;246;24111;-80
2022/07/11 01:29:16;;;;;;;4.90;1.30;;;11.70;99.90;11.00;100223;;;;576450;246;24073;-80
2022/07/11 01:31:44;;;;;;;0.97;0.70;;;11.60;99.90;10.90;100225;;;;576954;245;24119;-81
2022/07/11 01:34:12;;;;;;;1.27;1.00;;;11.60;99.90;10.90;100218;;;;586244;244;24075;-80
2022/07/11 01:36:40;;;;;;;2.63;1.27;;;11.50;99.90;10.90;100213;;;;571955;246;35058;-80
2022/07/11 01:39:08;;;;;;;1.33;1.00;;;11.50;99.90;10.80;100215;;;;577031;246;24108;-81
2022/07/11 01:41:35;;;;;;;1.13;1.00;;;11.50;99.90;10.80;100211;;;;576722;246;24062;-80
2022/07/11 01:44:03;;;;;;;0.90;0.90;;;11.50;99.90;10.80;100210;;;;576610;246;24078;-81
2022/07/11 01:46:31;;;;;;;1.63;0.93;;;11.40;99.90;10.80;100211;;;;576781;246;24068;-80
2022/07/11 01:48:59;;;;;;;1.57;1.47;;;11.40;99.90;10.70;100207;;;;576577;246;24077;-80
2022/07/11 01:51:27;;;;;;;3.77;1.17;;;11.40;99.90;10.70;100211;;;;576605;246;24300;-79
2022/07/11 01:53:55;;;;;;;1.70;1.60;;;11.30;99.90;10.70;100206;;;;571434;246;35110;-80
2022/07/11 01:56:23;;;;;;;2.60;1.20;;;11.30;99.90;10.70;100203;;;;576543;245;24082;-80
2022/07/11 01:58:51;;;;;;;1.37;1.27;;;11.30;99.90;10.70;100219;;;;576835;246;24085;-80
2022/07/11 02:01:19;;;;;;;1.33;1.00;;;11.30;99.90;10.60;100206;;;;576842;246;24054;-80
2022/07/11 02:03:47;;;;;;;1.50;1.40;;;11.30;99.90;10.60;100217;;;;576733;246;24091;-80
2022/07/11 02:06:15;;;;;;;1.07;1.07;;;11.20;99.90;10.60;100216;;;;576779;246;24066;-80
2022/07/11 02:08:43;;;;;;;1.30;1.20;;;11.20;99.90;10.60;100217;;;;576590;246;24079;-80
2022/07/11 02:11:10;;;;;;;2.10;1.27;;;11.20;99.90;10.60;100224;;;;576159;246;24105;-80
2022/07/11 02:13:38;;;;;;;2.93;1.30;;;11.20;99.90;10.60;100226;;;;576031;246;24103;-81
2022/07/11 02:16:09;;;;;;;1.00;1.00;;;11.20;99.90;10.70;100228;;;;576191;246;24077;-79
2022/07/11 02:18:34;;;;;;;1.20;1.20;;;11.30;99.90;10.70;100225;;;;576366;246;24088;-80
2022/07/11 02:21:03;;;;;;;2.33;1.37;;;11.30;99.90;10.70;100223;;;;582773;241;24024;-79
2022/07/11 02:23:32;;;;;;;1.10;1.10;;;11.40;99.90;10.70;100221;;;;587335;241;24101;-79
2022/07/11 02:26:00;;;;;;;1.43;1.33;;;11.30;99.90;10.80;100227;;;;587677;241;24059;-80
2022/07/11 02:28:28;;;;;;;4.33;1.50;;;11.40;99.90;10.80;100227;;;;596621;239;24057;-80
2022/07/11 02:30:55;;;;;;;1.03;1.03;;;11.50;99.90;10.90;100229;;;;596437;239;24029;-80
2022/07/11 02:33:23;;;;;;;4.60;1.70;;;11.50;99.90;10.90;100234;;;;596633;239;24042;-79
2022/07/11 02:35:51;;;;;;;2.63;1.30;;;11.50;99.90;11.00;100232;;;;596470;239;24042;-80
2022/07/11 02:38:19;;;;;;;1.33;1.23;;;11.60;99.90;11.00;100229;;;;587445;241;24056;-79
2022/07/11 02:40:47;;;;;;;2.30;1.00;;;11.70;99.90;11.10;100223;;;;596518;239;24045;-80
2022/07/11 02:43:15;;;;;;;1.83;1.47;;;11.70;99.90;11.10;100216;;;;597412;239;24041;-80
2022/07/11 02:45:43;;;;;;;2.83;1.33;;;11.70;99.90;11.10;100220;;;;597896;239;24027;-79
2022/07/11 02:48:12;;;;;;;1.00;1.00;;;11.70;99.90;11.10;100225;;;;597742;239;24042;-80
2022/07/11 02:50:39;;;;;;;2.20;1.63;;;11.70;99.90;11.00;100230;;;;597588;239;24161;-79
2022/07/11 02:53:07;;;;;;;1.40;1.37;;;11.60;99.90;11.00;100218;;;;597699;239;24097;-79
2022/07/11 02:55:35;;;;;;;1.63;1.53;;;11.60;99.90;11.00;100229;;;;597857;236;24040;-80
2022/07/11 02:58:07;;;;;;;2.13;1.47;;;11.60;99.90;11.00;100222;;;;597251;239;24050;-79
2022/07/11 03:00:35;;;;;;;3.13;1.40;;;11.60;99.90;11.00;100214;;;;587819;241;24045;-79
2022/07/11 03:02:59;;;;;;;1.43;1.33;;;11.60;99.90;10.90;100224;;;;587819;241;24084;-80
2022/07/11 03:05:27;;;;;;;1.43;1.33;;;11.50;99.90;10.90;100220;;;;587539;241;24056;-79
2022/07/11 03:07:55;;;;;;;1.90;1.27;;;11.50;99.90;10.90;100217;;;;587982;241;24017;-80
2022/07/11 03:10:25;;;;;;;2.33;1.10;;;11.60;99.90;10.90;100225;;;;597238;240;24055;-79
2022/07/11 03:12:53;;;;;;;1.00;1.00;;;11.50;99.90;11.00;100233;;;;596698;240;24096;-80
2022/07/11 03:15:21;;;;;;;1.17;1.10;;;11.60;99.90;11.00;100239;;;;596861;239;24042;-81
2022/07/11 03:17:50;;;;;;;1.63;1.10;;;11.70;99.90;11.10;100243;;;;587531;241;24072;-79
2022/07/11 03:20:19;;;;;;;1.70;1.60;;;11.80;99.90;11.20;100248;;;;596662;239;24051;-80
2022/07/11 03:22:50;;;;;;;2.20;1.30;;;11.80;99.90;11.30;100256;;;;596498;239;24034;-80
2022/07/11 03:25:14;;;;;;;1.47;1.20;;;11.90;99.90;11.40;100257;;;;587104;241;24041;-80
2022/07/11 03:27:42;;;;;;;2.30;1.43;;;12.00;99.90;11.60;100258;;;;596591;239;24071;-80
2022/07/11 03:30:14;;;;;;;1.17;1.17;;;12.10;99.90;11.70;100250;;;;596470;240;24065;-80
2022/07/11 03:32:42;;;;;;;2.73;1.13;;;12.30;99.90;11.70;100255;;;;587042;241;24144;-81
2022/07/11 03:37:55;;;;;;;2.47;1.43;;;12.40;99.90;11.80;100265;;;;587359;241;24115;-80
2022/07/11 03:40:20;;;;;;;1.20;1.10;;;12.40;99.90;11.80;100261;;;;587050;241;24123;-80
2022/07/11 03:42:48;;;;;;;1.37;1.13;;;12.50;99.90;11.90;100269;;;;596540;240;24032;-81
2022/07/11 03:45:18;;;;;;;1.53;1.43;;;12.50;99.90;11.90;100269;;;;587296;241;24085;-80
2022/07/11 03:47:44;;;;;;;2.07;1.40;;;12.50;99.90;11.90;100256;;;;596570;240;24056;-80
2022/07/11 03:50:12;;;;;;;3.83;1.50;;;12.60;99.90;12.00;100260;;;;587750;241;24108;-80
2022/07/11 03:52:39;;;;;;;1.30;1.20;;;12.60;99.90;12.00;100259;;;;588299;241;24028;-80
2022/07/11 03:55:07;;;;;;;2.83;1.30;;;12.60;99.90;12.00;100250;;;;598785;236;24051;-81
2022/07/11 03:57:36;;;;;;;2.23;1.53;;;12.70;99.90;12.00;100263;;;;588641;241;24036;-80
2022/07/11 04:00:10;;;;;;;2.20;1.00;;;12.70;99.90;12.10;100257;;;;588642;241;24043;-80
2022/07/11 04:02:37;;;;;;;1.33;1.30;;;12.70;99.90;12.10;100257;;;;588297;241;24114;-80
2022/07/11 04:05:02;;;;;;;1.20;1.20;;;12.70;99.90;12.10;100259;;;;588032;241;24037;-81
2022/07/11 04:07:31;;;;;;;1.73;1.20;;;12.70;99.90;12.10;100257;;;;588241;241;24027;-79
2022/07/11 04:09:59;;;;;;;1.57;1.07;;;12.70;99.90;12.10;100255;;;;597492;239;24050;-80
2022/07/11 04:12:27;;;;;;;1.10;1.00;;;12.70;99.90;12.10;100254;;;;588140;241;24019;-80
2022/07/11 04:14:55;;;;;;;1.17;1.03;;;12.80;99.90;12.20;100256;;;;596807;239;24035;-81
2022/07/11 04:17:24;;;;;;;0.90;0.90;;;12.80;99.90;12.20;100249;;;;596936;239;24036;-80
2022/07/11 04:19:52;;;;;;;2.53;1.27;;;12.80;99.90;12.20;100254;;;;596678;240;24030;-81
2022/07/11 04:22:20;;;;;;;0.90;0.90;;;12.90;99.90;12.30;100262;;;;596710;239;24029;-80
2022/07/11 04:24:48;;;;;;;0.67;0.67;;;12.90;99.90;12.30;100259;;;;587477;241;24050;-80
2022/07/11 04:27:16;;;;;;;1.07;0.97;;;12.90;99.90;12.30;100265;;;;596757;240;24080;-80
2022/07/11 04:29:44;;;;;;;3.43;0.87;;;13.00;99.90;12.30;100254;;;;596957;239;24028;-80
2022/07/11 04:32:12;;;;;;;3.03;0.83;;;13.00;99.90;12.40;100259;;;;596514;239;24044;-81
2022/07/11 04:34:39;;;;;;;0.90;0.90;;;13.00;99.90;12.40;100254;;;;596679;239;24087;-81
2022/07/11 04:37:07;;;;;;;5.43;0.87;;;13.10;99.90;12.50;100257;;;;596579;239;24082;-81
2022/07/11 04:39:35;;;;;;;1.17;1.07;;;13.10;99.90;12.50;100260;;;;596503;239;24033;-80
2022/07/11 04:42:06;;;;;;;5.60;1.03;;;13.20;99.90;12.60;100268;;;;596600;239;24028;-80
2022/07/11 04:44:32;;;;;;;2.37;1.00;;;13.40;99.90;12.70;100276;;;;586976;241;25137;-80
2022/07/11 04:47:00;;;;;;;1.10;1.10;;;13.30;99.90;12.80;100269;;;;596709;239;24038;-81
2022/07/11 04:49:28;;;;;;;2.97;1.10;;;13.40;99.90;12.90;100274;;;;596556;239;24073;-81
2022/07/11 04:51:59;;;;;;;0.77;0.77;;;13.50;99.90;13.00;100274;;;;596408;239;24167;-81
2022/07/11 04:54:23;;;;;;;1.13;1.13;;;13.60;99.90;13.10;100287;;;;586978;241;24084;-81
2022/07/11 04:56:51;;;;;;;0.80;0.80;;;13.80;99.90;13.30;100281;;;;596479;236;24100;-81
2022/07/11 04:59:19;;;;;;;0.70;0.70;;;13.90;99.90;13.40;100284;;;;596641;239;24019;-81
2022/07/11 05:01:47;;;;;;;1.20;0.90;;;14.10;99.90;13.70;100281;;;;587710;241;24033;-81
2022/07/11 05:04:15;;;;;;;1.27;1.20;;;14.30;99.90;13.90;100281;;;;596973;239;24033;-81
2022/07/11 05:06:43;;;;;;;1.50;1.20;;;14.50;99.90;14.10;100288;;;;598090;238;24039;-80
2022/07/11 05:09:13;;;;;;;0.90;0.90;;;14.90;99.90;14.30;100292;;;;588952;241;24085;-80
2022/07/11 05:11:40;;;;;;;1.00;0.70;;;15.10;99.90;14.40;100291;;;;597833;240;24030;-80
2022/07/11 05:14:08;;;;;;;2.03;0.80;;;15.00;99.90;14.60;100298;;;;597738;239;24031;-80
2022/07/11 05:16:36;;;;;;;0.50;0.50;;;15.20;99.90;14.80;100304;;;;597208;239;24141;-81
2022/07/11 05:19:04;;;;;;;1.33;0.70;;;15.40;99.90;14.80;100311;;;;597085;239;24033;-81
2022/07/11 05:21:32;;;;;;;0.97;0.97;;;15.50;99.90;14.70;100316;;;;587763;241;24071;-81
2022/07/11 05:24:00;;;;;;;0.70;0.70;;;15.40;99.90;14.70;100318;;;;597060;239;24062;-81
2022/07/11 05:26:28;;;;;;;0.87;0.87;;;15.30;99.90;14.60;100310;;;;596787;239;24030;-81
2022/07/11 05:28:56;;;;;;;3.97;1.13;;;15.30;99.90;14.70;100312;;;;596952;239;24022;-81
2022/07/11 05:31:24;;;;;;;0.70;0.70;;;15.30;99.90;14.80;100314;;;;596787;239;24039;-81
2022/07/11 05:33:52;;;;;;;1.50;0.87;;;15.30;99.90;14.90;100301;;;;596964;239;24075;-81
2022/07/11 05:36:20;;;;;;;1.00;0.87;;;15.40;99.90;15.10;100312;;;;596847;239;24054;-81
2022/07/11 05:38:49;;;;;;;2.27;0.83;;;15.80;99.90;15.20;100310;;;;586983;241;24037;-80
2022/07/11 05:41:17;;;;;;;0.95;0.75;;;15.80;99.90;15.10;100325;;;;591708;239;34844;-80
2022/07/11 05:43:45;;;;;;;1.13;0.67;;;15.70;99.90;15.00;100332;;;;596565;239;24087;-80
2022/07/11 05:46:13;;;;;;;0.60;0.60;;;15.60;99.90;14.90;100325;;;;596664;239;24071;-80
2022/07/11 05:48:41;;;;;;;0.77;0.40;;;15.60;99.90;14.80;100332;;;;596575;239;24042;-80
2022/07/11 05:51:09;;;;;;;2.83;0.70;;;15.50;99.90;14.60;100338;;;;587462;241;24043;-80
2022/07/11 05:53:36;;;;;;;0.40;0.40;;;15.40;99.90;14.50;100340;;;;596591;239;24065;-81
2022/07/11 05:56:08;;;;;;;1.50;0.53;;;15.20;99.90;14.40;100345;;;;587277;241;24112;-81
2022/07/11 05:58:36;;;;;;;0.40;0.40;;;15.00;99.90;14.30;100340;;;;596583;239;24080;-80
2022/07/11 06:01:02;;;;;;;2.33;0.60;;;15.00;99.90;14.20;100343;;;;587470;241;24046;-81
2022/07/11 06:03:30;;;;;;;0.73;0.40;;;15.00;99.90;14.20;100346;;;;588121;241;24041;-82
2022/07/11 06:05:58;;;;;;;1.13;0.30;;;14.90;99.90;14.30;100351;;;;597401;239;24008;-81
2022/07/11 06:08:41;;;;;;;2.57;0.33;;;14.90;99.90;14.40;100353;;;;597006;239;24037;-82
2022/07/11 06:11:11;;;;;;;1.27;0.40;;;15.00;99.90;14.30;100355;;;;597040;240;24086;-80
2022/07/11 06:13:40;;;;;;;0.53;0.47;;;15.10;99.90;14.30;100357;;;;587963;241;24058;-81
2022/07/11 06:16:08;;;;;;;0.27;0.27;;;15.00;99.90;14.40;100364;;;;596759;239;24036;-81
2022/07/11 06:18:36;;;;;;;0.20;0.20;;;15.00;99.90;14.30;100361;;;;588491;241;24035;-80
2022/07/11 06:21:07;;;;;;;0.50;0.30;;;15.00;99.90;14.30;100368;;;;588523;241;24076;-81
2022/07/11 06:23:34;;;;;;;0.27;0.27;;;14.90;99.90;14.20;100370;;;;596998;240;24048;-81
2022/07/11 06:26:00;;;;;;;0.40;0.33;;;14.80;99.90;14.10;100370;;;;587555;241;24087;-81
2022/07/11 06:28:28;;;;;;;0.40;0.40;;;14.70;99.90;14.10;100375;;;;587903;241;24016;-81
2022/07/11 06:30:56;;;;;;;0.53;0.20;;;14.70;99.90;14.00;100378;;;;596986;239;24078;-81
2022/07/11 06:33:24;;;;;;;0.43;0.30;;;14.60;99.90;13.90;100369;;;;597151;239;24162;-81
2022/07/11 06:35:52;;;;;;;0.87;0.60;;;14.60;99.90;13.90;100379;;;;587674;241;24047;-81
2022/07/11 06:38:20;;;;;;;0.50;0.50;;;14.60;99.90;14.00;100373;;;;587662;241;24013;-81
2022/07/11 06:40:48;;;;;;;1.03;0.60;;;14.60;99.90;14.10;100378;;;;596669;240;24038;-81
2022/07/11 06:43:16;;;;;;;1.63;0.50;;;14.70;99.90;14.10;100373;;;;587738;241;24042;-80
2022/07/11 06:45:46;;;;;;;2.43;0.57;;;14.70;99.90;14.20;100362;;;;596847;239;24099;-80
2022/07/11 06:48:17;;;;;;;0.60;0.60;;;14.70;99.90;14.20;100368;;;;587469;241;24033;-82
2022/07/11 06:50:42;;;;;;;1.47;0.97;;;14.70;99.90;14.20;100372;;;;587359;241;24052;-82
2022/07/11 06:53:10;;;;;;;2.13;0.73;;;14.70;99.90;14.30;100376;;;;596757;239;24113;-81
2022/07/11 06:55:38;;;;;;;1.90;0.70;;;14.80;99.90;14.30;100376;;;;586986;241;24043;-82
2022/07/11 06:58:06;;;;;;;1.03;1.00;;;14.80;99.90;14.40;100378;;;;587376;241;24050;-83
2022/07/11 07:00:33;;;;;;;1.03;1.00;;;14.90;99.90;14.60;100371;;;;596314;241;24048;-81
2022/07/11 07:03:02;;;;;;;1.80;1.20;;;15.50;99.90;15.10;100379;;;;596948;239;24047;-81
2022/07/11 07:05:31;;;;;;;3.20;1.50;;;16.20;99.90;15.80;100380;;;;596954;239;24061;-82
2022/07/11 07:07:59;;;;;;;2.63;2.00;;;17.20;99.90;16.90;100378;;;;596957;239;24094;-81
2022/07/11 07:10:27;;;;;;;1.97;1.37;;;17.10;99.90;20.20;100386;;;;596949;239;24043;-81
2022/07/11 07:12:55;;;;;;;1.00;0.90;;;20.10;99.90;22.90;100395;;;;587734;241;24085;-81
2022/07/11 07:15:24;;;;;;;0.80;0.63;;;23.10;99.90;23.50;100387;;;;596933;240;23049;-81
2022/07/11 07:17:52;;;;;;;3.40;0.77;;;24.10;99.90;23.20;100384;;;;587727;241;24030;-82
2022/07/11 07:20:20;;;;;;;3.40;3.10;;;24.10;99.90;23.00;100382;;;;587414;241;24038;-81
2022/07/11 07:22:48;;;;;;;3.37;0.70;;;23.70;99.90;22.80;100375;;;;596521;239;25117;-81
2022/07/11 07:25:17;;;;;;;1.00;0.53;;;23.70;99.90;22.90;100381;;;;596615;239;23220;-80
2022/07/11 07:27:44;;;;;;;0.60;0.50;;;23.60;99.90;24.70;100386;;;;596530;239;24038;-81
2022/07/11 07:30:12;;;;;;;0.43;0.43;;;24.90;99.90;27.30;100389;;;;598275;238;23052;-81
2022/07/11 07:32:40;;;;;;;0.40;0.40;;;27.40;99.90;29.20;100389;;;;597755;239;23046;-81
2022/07/11 07:35:08;;;;;;;2.12;0.60;;;29.40;99.90;31.30;100387;;;;597361;239;24054;-81
2022/07/11 07:37:36;;;;;;;0.45;0.40;;;31.60;99.90;32.50;100382;;;;588498;241;23157;-82
2022/07/11 07:40:04;;;;;;;0.65;0.62;;;33.20;97.60;32.70;100379;;;;597611;239;24039;-82
2022/07/11 07:42:32;;;;;;;2.25;0.90;;;33.60;89.60;33.20;100380;;;;588200;241;23035;-82
2022/07/11 07:45:01;;;;;;;0.77;0.77;;;33.90;82.60;32.70;100379;;;;597522;239;23026;-82
2022/07/11 07:47:29;;;;;;;1.00;0.55;;;33.70;75.60;31.20;100387;;;;597369;239;23074;-82
2022/07/11 07:49:56;;;;;;;0.60;0.60;;;32.70;74.60;29.60;100387;;;;597161;240;24119;-82
2022/07/11 07:52:23;;;;;;;0.77;0.50;;;31.30;75.90;28.10;100394;;;;597205;239;23039;-81
2022/07/11 07:54:52;;;;;;;0.52;0.52;;;28.30;82.40;26.90;100400;;;;597272;237;23054;-81
2022/07/11 07:57:20;;;;;;;0.85;0.60;;;28.20;82.30;26.00;100393;;;;596786;239;23044;-81
2022/07/11 07:59:48;;;;;;;0.97;0.70;;;27.00;90.30;25.30;100389;;;;597269;239;24033;-81
2022/07/11 08:02:16;;;;;;;2.27;0.50;;;26.20;90.90;24.90;100394;;;;587621;241;24122;-81
2022/07/11 08:04:44;;;;;;;2.47;0.70;;;25.60;93.10;24.70;100399;;;;597180;239;23061;-81
2022/07/11 08:07:12;;;;;;;5.60;1.90;;;25.20;94.40;24.70;100408;;;;596962;239;23049;-81
2022/07/11 08:09:40;;;;;;;2.00;1.37;;;25.10;96.10;24.70;100409;;;;596976;239;24031;-81
2022/07/11 08:12:11;;;;;;;2.93;1.10;;;25.10;98.10;25.20;100411;;;;596827;240;23042;-81
2022/07/11 08:14:35;;;;;;;2.40;0.90;;;25.50;97.60;27.00;100408;;;;587224;241;24018;-81
2022/07/11 08:17:06;;;;;;;4.73;1.27;;;27.10;97.60;28.20;100407;;;;596919;240;23086;-82
2022/07/11 08:19:31;;;;;;;1.50;1.20;;;28.50;93.60;29.00;100410;;;;576969;246;24074;-82
2022/07/11 08:22:00;;;;;;;2.25;0.80;;;29.40;91.50;29.60;100415;;;;576087;246;24135;-81
2022/07/11 08:24:27;;;;;;;1.80;0.70;;;30.00;90.20;30.00;100411;;;;576102;246;23104;-80
2022/07/11 08:26:56;;;;;;;0.75;0.52;;;31.80;83.30;31.70;100417;;;;576097;246;23064;-81
2022/07/11 08:29:24;;;;;;;0.80;0.80;;;31.70;83.10;33.70;100415;;;;576567;246;23113;-82
2022/07/11 08:31:52;;;;;;;1.10;0.82;;;33.90;76.80;34.90;100416;;;;577109;246;24101;-80
2022/07/11 08:34:20;;;;;;;0.70;0.70;;;35.30;69.00;35.40;100423;;;;577112;246;23079;-82
2022/07/11 08:36:47;;;;;;;0.40;0.40;;;36.10;62.50;34.70;100421;;;;576913;246;23106;-82
2022/07/11 08:39:15;;;;;;;0.40;0.40;;;35.70;61.40;34.80;100426;;;;576284;246;23084;-82
2022/07/11 08:41:44;;;;;;;1.35;0.60;;;35.60;60.70;34.30;100426;;;;577489;245;23055;-82
2022/07/11 08:44:18;;;;;;;1.02;0.60;;;35.40;59.50;33.00;100422;;;;577117;245;23078;-82
2022/07/11 08:46:42;;;;;;;0.80;0.62;;;34.40;62.40;31.70;100426;;;;577250;245;23136;-81
2022/07/11 08:49:10;;;;;;;0.62;0.50;;;33.10;63.30;30.50;100425;;;;577544;245;23075;-81
2022/07/11 08:51:38;;;;;;;2.60;0.70;;;31.90;65.60;29.40;100418;;;;576535;246;23104;-80
2022/07/11 08:54:06;;;;;;;1.30;0.60;;;30.60;69.60;28.40;100425;;;;576797;246;23067;-80
2022/07/11 08:56:34;;;;;;;1.95;0.70;;;29.40;71.90;27.60;100422;;;;576650;245;24064;-80
2022/07/11 08:59:02;;;;;;;1.25;0.90;;;27.70;76.40;26.80;100405;;;;576647;246;23071;-80
2022/07/11 09:01:36;;;;;;;1.90;0.60;;;27.60;76.40;26.50;100417;;;;576494;246;23091;-80
2022/07/11 09:04:05;;;;;;;0.43;0.30;;;27.20;81.60;27.10;100412;;;;576308;246;24085;-81
2022/07/11 09:06:32;;;;;;;0.60;0.60;;;27.20;81.60;27.90;100412;;;;576705;246;24099;-80
2022/07/11 09:09:00;;;;;;;1.12;0.80;;;28.10;79.40;29.80;100422;;;;576876;246;23075;-80
2022/07/11 09:11:28;;;;;;;0.50;0.50;;;29.70;77.90;32.20;100432;;;;576881;246;23091;-81
2022/07/11 09:13:56;;;;;;;0.55;0.55;;;32.10;71.70;34.30;100440;;;;576851;246;23067;-82
2022/07/11 09:16:28;;;;;;;1.65;0.40;;;34.30;64.40;36.00;100437;;;;576729;246;23082;-81
2022/07/11 09:18:55;;;;;;;0.62;0.40;;;36.30;57.60;37.00;100437;;;;576505;246;23077;-82
2022/07/11 09:26:55;;;;;;;0.30;0.30;;;38.80;50.60;38.20;100438;;;;576173;246;23067;-81
2022/07/11 09:29:27;;;;;;;1.12;0.43;;;39.20;49.40;36.90;100439;;;;576118;246;24098;-83
2022/07/11 09:31:54;;;;;;;0.62;0.30;;;38.40;48.50;35.30;100447;;;;576314;246;23093;-82
2022/07/11 09:34:26;;;;;;;2.62;0.60;;;35.60;51.50;34.10;100449;;;;575832;246;23095;-80
2022/07/11 09:36:56;;;;;;;1.60;0.40;;;35.50;51.40;33.30;100442;;;;575881;246;23090;-80
2022/07/11 09:39:24;;;;;;;5.20;4.78;;;34.50;53.70;33.10;100452;;;;579926;244;35046;-80
2022/07/11 09:41:53;;;;;;;1.27;0.40;;;34.00;55.80;33.40;100451;;;;576320;246;23085;-80
2022/07/11 09:44:24;;;;;;;2.37;0.40;;;33.90;55.40;34.40;100450;;;;576049;246;23069;-81
2022/07/11 09:46:49;;;;;;;0.90;0.50;;;34.70;54.30;35.70;100447;;;;576463;246;23118;-81
2022/07/11 09:49:17;;;;;;;1.52;0.50;;;36.00;52.80;37.40;100451;;;;579613;239;23063;-80
2022/07/11 09:51:45;;;;;;;0.40;0.40;;;37.70;51.50;37.50;100458;;;;572869;244;23097;-80
2022/07/11 09:54:13;;;;;;;0.20;0.20;;;37.70;47.10;36.40;100461;;;;586425;244;23093;-80
2022/07/11 09:56:51;;;;;;;0.25;0.25;;;37.00;47.50;35.80;100454;;;;576937;245;23086;-80
2022/07/11 09:59:16;;;;;;;0.30;0.30;;;37.00;47.50;35.30;100459;;;;576813;246;23070;-81
2022/07/11 10:01:44;;;;;;;0.70;0.32;;;36.50;47.00;34.30;100470;;;;576677;246;23118;-80
2022/07/11 10:04:11;;;;;;;0.73;0.40;;;35.60;48.20;33.10;100460;;;;576408;246;23119;-80
2022/07/11 10:06:42;;;;;;;0.30;0.30;;;34.40;50.10;31.90;100463;;;;576912;246;24116;-80
2022/07/11 10:09:10;;;;;;;1.10;0.40;;;33.00;52.50;32.40;100463;;;;586291;245;23075;-79
2022/07/11 10:11:35;;;;;;;0.20;0.20;;;33.00;53.60;32.10;100465;;;;577033;246;23086;-80
2022/07/11 10:14:07;;;;;;;1.17;0.40;;;32.90;52.20;31.10;100454;;;;576365;246;23117;-81
2022/07/11 10:16:49;;;;;;;0.75;0.50;;;32.10;53.70;30.50;100457;;;;576511;246;23080;-81
2022/07/11 10:19:48;;;;;;;0.57;0.57;;;31.20;55.20;30.40;100463;;;;584281;245;23131;-82
2022/07/11 10:22:48;;;;;;;3.20;0.50;;;30.90;56.60;29.60;100468;;;;570161;248;23139;-79
2022/07/11 10:25:20;;;;;;;0.40;0.20;;;30.20;57.70;30.30;100474;;;;579909;244;23143;-80
2022/07/11 10:31:33;;;;;;;1.15;0.40;;;31.20;57.50;32.30;100478;;;;567477;249;23264;-80
2022/07/11 10:34:21;;;;;;;0.30;0.30;;;32.70;55.90;32.30;100471;;;;565144;248;24188;-81
2022/07/11 10:37:06;;;;;;;0.40;0.40;;;32.90;54.80;33.10;100474;;;;564997;249;24222;-82
2022/07/11 10:49:26;;;;;;;1.90;0.40;;;33.60;52.90;31.40;100478;;;;543865;257;23275;-81
2022/07/11 10:52:31;;;;;;;;;;;;;;;;;;;;;
2022/07/11 11:02:02;;;;;;;0.60;0.60;;;27.90;63.10;26.40;100486;;;;545041;261;23197;-80
2022/07/11 11:04:01;;;;;;;0.57;0.57;;;26.90;66.20;25.90;100483;;;;532228;261;24245;-79
2022/07/11 11:07:02;;;;;;;0.40;0.40;;;26.20;67.40;25.70;100477;;;;556458;254;23102;-80
2022/07/11 11:09:50;;;;;;;0.63;0.37;;;25.70;71.10;25.60;100476;;;;564909;252;24126;-80
2022/07/11 11:13:20;;;;;;;0.20;0.20;;;25.70;71.10;25.20;100474;;;;574170;248;24118;-78
2022/07/11 11:18:46;;;;;;;0.33;0.33;;;25.30;67.50;24.30;100491;;;;532578;266;24086;-80
2022/07/11 11:21:44;;;;;;;;;;;;;;;;;;;;;
2022/07/11 11:24:24;;;;;;;;;;;;;;;;;;;;;
2022/07/11 11:32:39;;;;;;;0.80;0.30;;;23.70;71.30;23.40;100497;;;;515245;273;24346;-81
2022/07/11 11:35:05;;;;;;;0.10;0.10;;;23.60;71.30;23.60;100504;;;;500249;281;24314;-81
2022/07/11 11:37:41;;;;;;;;;;;;;;;;;;;;;
2022/07/11 11:40:33;;;;;;;;;;;;;;;;;;;;;
2022/07/11 11:47:03;;;;;;;0.30;0.20;;;23.00;73.20;22.40;100502;;;;512686;280;24343;-80
2022/07/11 11:49:55;;;;;;;;;;;;;;;;;;;;;
2022/07/11 11:53:00;;;;;;;0.20;0.20;;;22.60;73.80;21.80;100494;;;;492692;281;24446;-82
2022/07/11 12:08:07;;;;;;;0.35;0.35;;;21.60;78.80;20.80;100494;;;;522692;269;36066;-82
2022/07/11 12:10:33;;;;;;;4.47;0.70;;;21.20;81.60;20.60;100480;;;;541736;261;23226;-81
2022/07/11 12:13:00;;;;;;;0.30;0.30;;;21.10;81.50;20.60;100490;;;;573147;239;24040;-81
2022/07/11 12:15:34;;;;;;;0.13;0.13;;;21.10;83.20;20.50;100496;;;;592651;238;23094;-81
2022/07/11 12:17:59;;;;;;;0.77;0.30;;;21.00;82.60;20.10;100491;;;;593138;239;24048;-80
2022/07/11 12:20:41;;;;;;;0.83;0.63;;;20.70;82.50;19.90;100480;;;;592970;239;24036;-81